Time;durP1;ratioP1;P1;durP2;ratioP2;P2;SDS_P1;SDS_P2;PMS_P1;PMS_P2;Temp;Humidity;BMP_temperature;BMP_pressure;BME280_temperature;BME280_humidity;BME280_pressure;Samples;Min_cycle;Max_cycle;Signal;HPM_P1;HPM_P2
2021/04/16 00:00:37;;;;;;;1.77;1.30;;;5.40;98.60;;;;;;5089961;28;20233;-48
2021/04/16 00:03:03;;;;;;;;;;;5.40;99.90;;;;;;5072408;28;20016;-45
2021/04/16 00:05:29;;;;;;;3.53;1.30;;;5.40;99.90;;;;;;5090173;28;19908;-45
2021/04/16 00:07:55;;;;;;;1.98;1.20;;;5.40;99.90;;;;;;5089456;28;20142;-46
2021/04/16 00:10:29;;;;;;;3.03;1.40;;;5.30;99.90;;;;;;5090104;28;20060;-47
2021/04/16 00:12:54;;;;;;;1.58;1.17;;;5.30;99.90;;;;;;5089815;28;20107;-45
2021/04/16 00:15:23;;;;;;;1.58;1.00;;;5.30;99.90;;;;;;5089325;28;20107;-45
2021/04/16 00:17:49;;;;;;;1.35;1.10;;;5.30;99.90;;;;;;5089381;28;20631;-44
2021/04/16 00:20:18;;;;;;;2.97;1.48;;;5.30;99.90;;;;;;5090186;28;20050;-44
2021/04/16 00:22:44;;;;;;;1.13;1.02;;;5.30;99.90;;;;;;5089276;28;20095;-45
2021/04/16 00:25:15;;;;;;;1.23;1.00;;;5.20;99.90;;;;;;5089640;28;20446;-44
2021/04/16 00:27:41;;;;;;;3.70;1.58;;;5.20;99.90;;;;;;5088889;28;20031;-44
2021/04/16 00:30:08;;;;;;;1.38;1.00;;;5.20;99.90;;;;;;5089276;28;20425;-45
2021/04/16 00:32:34;;;;;;;1.35;1.10;;;5.20;99.90;;;;;;5089309;28;20040;-45
2021/04/16 00:35:00;;;;;;;1.33;1.02;;;5.20;99.90;;;;;;5088976;28;20024;-45
2021/04/16 00:37:26;;;;;;;3.63;1.55;;;5.20;99.90;;;;;;5088930;28;20263;-46
2021/04/16 00:39:51;;;;;;;3.70;1.45;;;5.20;99.90;;;;;;5089592;28;20020;-43
2021/04/16 00:42:17;;;;;;;3.83;1.50;;;5.20;99.90;;;;;;5089660;28;20529;-44
2021/04/16 00:44:43;;;;;;;1.45;1.35;;;5.10;99.90;;;;;;5089820;28;20024;-45
2021/04/16 00:47:14;;;;;;;2.63;1.52;;;5.10;99.90;;;;;;5089665;28;20028;-45
2021/04/16 00:49:43;;;;;;;2.47;1.25;;;5.10;99.90;;;;;;5070549;28;20039;-45
2021/04/16 00:52:10;;;;;;;4.85;2.03;;;5.00;99.90;;;;;;5089569;28;20067;-44
2021/04/16 00:54:39;;;;;;;4.15;1.30;;;5.00;99.90;;;;;;5088896;28;20030;-45
2021/04/16 00:57:07;;;;;;;3.53;1.30;;;5.00;99.90;;;;;;5088904;28;20101;-45
2021/04/16 00:59:35;;;;;;;2.03;1.40;;;5.00;99.90;;;;;;5088256;28;20402;-45
2021/04/16 01:02:03;;;;;;;1.67;1.20;;;5.00;99.90;;;;;;5088709;28;20039;-45
2021/04/16 01:04:29;;;;;;;1.60;0.98;;;5.00;99.90;;;;;;5088866;28;20114;-45
2021/04/16 01:06:56;;;;;;;1.52;1.00;;;5.00;99.90;;;;;;5088588;28;20077;-45
2021/04/16 01:09:21;;;;;;;1.70;1.15;;;4.90;99.90;;;;;;5088246;28;20031;-45
2021/04/16 01:11:47;;;;;;;1.95;1.10;;;5.00;99.90;;;;;;5088618;28;20470;-44
2021/04/16 01:14:14;;;;;;;3.13;1.40;;;4.90;99.90;;;;;;5088845;28;20035;-45
2021/04/16 01:16:41;;;;;;;3.20;1.15;;;4.90;99.90;;;;;;5070710;28;20020;-45
2021/04/16 01:19:17;;;;;;;2.63;1.00;;;4.90;99.90;;;;;;5088190;28;20114;-44
2021/04/16 01:21:50;;;;;;;2.08;1.42;;;4.90;99.90;;;;;;5088249;28;20024;-45
2021/04/16 01:24:35;;;;;;;2.15;1.10;;;4.90;99.90;;;;;;5070281;28;20058;-46
2021/04/16 01:27:10;;;;;;;1.38;1.15;;;4.90;99.90;;;;;;5088297;28;20032;-45
2021/04/16 01:29:39;;;;;;;1.33;1.10;;;5.00;99.90;;;;;;5088137;28;20028;-45
2021/04/16 01:32:05;;;;;;;1.60;1.40;;;4.90;99.90;;;;;;5088466;28;20024;-44
2021/04/16 01:34:30;;;;;;;2.85;1.35;;;5.00;99.90;;;;;;5088664;28;20024;-47
2021/04/16 01:36:57;;;;;;;1.15;1.05;;;4.90;99.90;;;;;;5088112;28;20498;-44
2021/04/16 01:39:27;;;;;;;2.22;1.10;;;4.90;99.90;;;;;;5086769;28;20119;-44
2021/04/16 01:41:52;;;;;;;1.63;1.13;;;4.90;99.90;;;;;;5069381;28;20020;-47
2021/04/16 01:44:27;;;;;;;2.55;1.30;;;4.90;99.90;;;;;;5088106;28;20107;-46
2021/04/16 01:47:00;;;;;;;1.77;1.40;;;4.90;99.90;;;;;;5088042;28;20466;-45
2021/04/16 01:49:29;;;;;;;1.98;1.40;;;4.90;99.90;;;;;;5087276;28;20036;-44
2021/04/16 01:51:56;;;;;;;3.05;1.60;;;4.80;99.90;;;;;;5088382;28;20101;-45
2021/04/16 01:54:25;;;;;;;1.90;1.20;;;4.80;99.90;;;;;;5069801;28;20023;-46
2021/04/16 01:57:00;;;;;;;3.05;1.10;;;4.90;99.90;;;;;;5088279;28;20393;-45
2021/04/16 01:59:29;;;;;;;1.92;1.33;;;4.90;99.90;;;;;;5087339;28;20027;-45
2021/04/16 02:01:55;;;;;;;2.95;1.02;;;4.80;99.90;;;;;;5087854;28;20043;-46
2021/04/16 02:04:22;;;;;;;2.03;1.23;;;4.80;99.90;;;;;;5069388;28;20065;-45
2021/04/16 02:06:50;;;;;;;1.80;1.20;;;4.80;99.90;;;;;;5087693;28;20159;-44
2021/04/16 02:09:19;;;;;;;1.17;1.08;;;4.80;99.90;;;;;;5086443;28;20286;-45
2021/04/16 02:11:45;;;;;;;6.43;1.33;;;4.80;99.90;;;;;;5087359;28;20032;-45
2021/04/16 02:14:19;;;;;;;7.75;3.08;;;4.80;99.90;;;;;;5089075;28;20546;-46
2021/04/16 02:16:47;;;;;;;1.67;1.30;;;4.80;99.90;;;;;;5086285;28;20586;-44
2021/04/16 02:19:14;;;;;;;2.92;1.45;;;4.80;99.90;;;;;;5085839;28;20019;-45
2021/04/16 02:21:41;;;;;;;2.10;1.45;;;4.80;99.90;;;;;;5086775;28;20381;-47
2021/04/16 02:24:08;;;;;;;2.83;1.83;;;4.80;99.90;;;;;;5087254;28;20024;-46
2021/04/16 02:26:34;;;;;;;1.60;1.20;;;4.80;99.90;;;;;;5084122;28;20032;-45
2021/04/16 02:29:00;;;;;;;1.73;1.48;;;4.80;99.90;;;;;;5085887;28;20431;-47
2021/04/16 02:31:26;;;;;;;6.47;1.52;;;4.80;99.90;;;;;;5086668;28;20024;-46
2021/04/16 02:33:52;;;;;;;3.58;1.63;;;4.80;99.90;;;;;;5068224;28;20473;-45
2021/04/16 02:36:19;;;;;;;3.05;1.50;;;4.80;99.90;;;;;;5086548;28;20162;-45
2021/04/16 02:38:44;;;;;;;3.83;1.73;;;4.90;99.90;;;;;;5086115;28;20382;-46
2021/04/16 02:41:10;;;;;;;4.43;1.88;;;4.80;99.90;;;;;;5086490;28;20020;-45
2021/04/16 02:43:35;;;;;;;2.10;1.48;;;4.90;99.90;;;;;;5086644;28;20036;-45
2021/04/16 02:46:02;;;;;;;3.33;2.08;;;4.90;99.90;;;;;;5086406;28;20617;-47
2021/04/16 02:48:27;;;;;;;3.42;2.00;;;4.90;99.90;;;;;;5085802;28;20024;-45
2021/04/16 02:50:53;;;;;;;3.67;2.08;;;5.00;99.90;;;;;;5068207;28;20031;-46
2021/04/16 02:53:19;;;;;;;5.20;2.55;;;5.00;99.90;;;;;;5085421;28;20026;-46
2021/04/16 02:55:46;;;;;;;3.88;2.20;;;5.10;99.90;;;;;;5086546;28;20016;-44
2021/04/16 02:58:11;;;;;;;3.53;2.30;;;5.10;99.90;;;;;;5086213;28;20190;-46
2021/04/16 03:00:37;;;;;;;5.82;2.30;;;5.10;99.90;;;;;;5085993;28;20099;-44
2021/04/16 03:03:03;;;;;;;6.00;2.03;;;5.10;99.90;;;;;;5068163;28;20012;-47
2021/04/16 03:05:29;;;;;;;4.53;2.20;;;5.10;99.90;;;;;;5086747;28;20055;-45
2021/04/16 03:07:55;;;;;;;3.70;2.30;;;5.10;99.90;;;;;;5086248;28;20211;-44
2021/04/16 03:10:32;;;;;;;5.30;2.35;;;5.10;99.90;;;;;;5086049;28;20087;-45
2021/04/16 03:12:57;;;;;;;5.63;2.55;;;5.10;99.90;;;;;;5084104;28;20024;-45
2021/04/16 03:15:24;;;;;;;5.20;2.42;;;5.10;99.90;;;;;;5085665;28;20111;-45
2021/04/16 03:17:49;;;;;;;5.75;2.63;;;5.10;99.90;;;;;;5085054;28;20016;-45
2021/04/16 03:20:17;;;;;;;4.68;2.30;;;5.20;99.90;;;;;;5085560;28;20101;-44
2021/04/16 03:22:43;;;;;;;3.17;2.22;;;5.10;99.90;;;;;;5085693;28;20454;-44
2021/04/16 03:25:10;;;;;;;3.55;2.10;;;5.10;99.90;;;;;;5085151;28;20116;-44
2021/04/16 03:27:36;;;;;;;4.03;2.10;;;5.10;99.90;;;;;;5085642;28;20111;-45
2021/04/16 03:30:04;;;;;;;7.55;2.22;;;5.10;99.90;;;;;;5085670;28;20020;-44
2021/04/16 03:32:30;;;;;;;4.20;2.20;;;5.10;99.90;;;;;;5086305;28;20040;-45
2021/04/16 03:34:55;;;;;;;5.43;2.40;;;5.10;99.90;;;;;;5086816;28;20490;-46
2021/04/16 03:37:21;;;;;;;3.67;2.45;;;5.10;99.90;;;;;;5085930;28;20039;-46
2021/04/16 03:39:47;;;;;;;5.85;2.92;;;5.10;99.90;;;;;;5086207;28;20103;-45
2021/04/16 03:42:12;;;;;;;3.08;2.13;;;5.10;99.90;;;;;;5086231;28;20279;-46
2021/04/16 03:44:38;;;;;;;3.60;2.50;;;5.10;99.90;;;;;;5086345;28;20055;-44
2021/04/16 03:47:03;;;;;;;5.65;2.40;;;5.10;99.90;;;;;;5086339;28;20105;-45
2021/04/16 03:49:29;;;;;;;2.70;1.83;;;5.10;99.90;;;;;;5086177;28;20035;-45
2021/04/16 03:51:57;;;;;;;4.18;2.72;;;5.10;99.90;;;;;;5086474;28;20036;-45
2021/04/16 03:54:24;;;;;;;4.22;2.63;;;5.10;99.90;;;;;;5086548;28;20028;-45
2021/04/16 03:56:50;;;;;;;4.35;2.92;;;5.20;99.90;;;;;;5067904;28;20016;-44
2021/04/16 03:59:18;;;;;;;6.70;2.67;;;5.20;99.90;;;;;;5084836;28;20028;-47
2021/04/16 04:01:43;;;;;;;4.45;2.70;;;5.20;99.90;;;;;;5085534;28;20012;-44
2021/04/16 04:04:09;;;;;;;5.43;2.40;;;5.20;99.90;;;;;;5068968;28;20111;-45
2021/04/16 04:06:35;;;;;;;4.47;2.65;;;5.20;99.90;;;;;;5089957;28;20115;-45
2021/04/16 04:09:01;;;;;;;3.58;2.42;;;5.20;99.90;;;;;;5087920;28;20588;-44
2021/04/16 04:11:26;;;;;;;5.60;2.95;;;5.10;99.90;;;;;;5088212;28;20054;-44
2021/04/16 04:13:52;;;;;;;4.25;2.30;;;5.10;99.90;;;;;;5090146;28;20058;-44
2021/04/16 04:16:18;;;;;;;5.38;2.60;;;5.10;99.90;;;;;;5089615;28;20051;-44
2021/04/16 04:18:43;;;;;;;5.05;2.72;;;5.10;99.90;;;;;;5088954;28;20116;-44
2021/04/16 04:21:09;;;;;;;3.63;2.13;;;5.10;99.90;;;;;;5089626;28;20027;-44
2021/04/16 04:23:34;;;;;;;3.53;2.20;;;5.00;99.90;;;;;;5070986;28;20339;-44
2021/04/16 04:26:00;;;;;;;6.18;2.45;;;5.10;99.90;;;;;;5089497;28;20063;-44
2021/04/16 04:28:26;;;;;;;5.80;2.75;;;5.10;99.90;;;;;;5089254;28;20023;-44
2021/04/16 04:30:51;;;;;;;3.88;2.30;;;5.10;99.90;;;;;;5071012;28;20326;-44
2021/04/16 04:33:17;;;;;;;4.82;2.85;;;5.10;99.90;;;;;;5089224;28;20464;-44
2021/04/16 04:35:42;;;;;;;8.60;2.58;;;5.00;99.90;;;;;;5089590;28;20024;-45
2021/04/16 04:38:08;;;;;;;4.68;2.63;;;5.10;99.90;;;;;;5070637;28;20027;-47
2021/04/16 04:40:35;;;;;;;3.92;2.70;;;5.10;99.90;;;;;;5089314;28;20117;-44
2021/04/16 04:43:00;;;;;;;4.82;2.67;;;5.20;99.90;;;;;;5089846;28;20054;-45
2021/04/16 04:45:26;;;;;;;5.20;2.75;;;5.10;99.90;;;;;;5089503;28;20032;-45
2021/04/16 04:47:52;;;;;;;8.02;3.00;;;5.20;99.90;;;;;;5088928;28;20028;-45
2021/04/16 04:50:18;;;;;;;5.53;2.50;;;5.20;99.90;;;;;;5089643;28;20028;-47
2021/04/16 04:52:44;;;;;;;4.70;2.53;;;5.20;99.90;;;;;;5089432;28;20163;-45
2021/04/16 04:55:14;;;;;;;4.25;2.83;;;5.20;99.90;;;;;;5089316;28;20028;-46
2021/04/16 04:57:40;;;;;;;7.27;2.90;;;5.20;99.90;;;;;;5088590;28;20498;-44
2021/04/16 05:00:08;;;;;;;4.22;2.60;;;5.20;99.90;;;;;;5089238;28;20265;-45
2021/04/16 05:02:34;;;;;;;6.50;2.75;;;5.20;99.90;;;;;;5089675;28;20077;-44
2021/04/16 05:04:59;;;;;;;5.38;2.58;;;5.30;99.90;;;;;;5088958;28;20385;-45
2021/04/16 05:07:25;;;;;;;5.25;2.97;;;5.30;99.90;;;;;;5080853;28;20320;-44
2021/04/16 05:09:51;;;;;;;4.78;2.95;;;5.40;99.90;;;;;;5098201;28;20052;-48
2021/04/16 05:12:17;;;;;;;5.00;2.72;;;5.40;99.90;;;;;;5091460;28;20032;-44
2021/04/16 05:14:42;;;;;;;5.68;2.78;;;5.40;99.90;;;;;;5094760;28;20039;-45
2021/04/16 05:17:09;;;;;;;7.40;2.97;;;5.50;99.90;;;;;;5089417;28;20111;-43
2021/04/16 05:19:34;;;;;;;6.72;2.67;;;5.50;99.90;;;;;;5076938;28;20022;-46
2021/04/16 05:22:03;;;;;;;10.50;3.40;;;5.50;99.90;;;;;;5098448;28;20012;-45
2021/04/16 05:24:31;;;;;;;7.38;3.28;;;5.50;99.90;;;;;;5090848;28;20505;-45
2021/04/16 05:27:08;;;;;;;7.00;3.03;;;5.60;99.90;;;;;;5088636;28;20038;-45
2021/04/16 05:29:34;;;;;;;7.07;3.38;;;5.60;99.90;;;;;;5087412;28;20024;-45
2021/04/16 05:32:00;;;;;;;4.22;2.95;;;5.70;99.90;;;;;;5087647;28;20032;-44
2021/04/16 05:34:26;;;;;;;5.38;2.85;;;5.70;99.90;;;;;;5087914;28;20050;-43
2021/04/16 05:36:52;;;;;;;5.65;3.17;;;5.70;99.90;;;;;;5086911;28;20028;-44
2021/04/16 05:39:18;;;;;;;7.68;2.80;;;5.80;99.90;;;;;;5083599;28;20016;-44
2021/04/16 05:41:44;;;;;;;6.05;2.95;;;5.80;99.90;;;;;;5060857;28;20113;-43
2021/04/16 05:44:09;;;;;;;7.53;2.90;;;5.80;99.90;;;;;;5063913;28;20020;-44
2021/04/16 05:46:37;;;;;;;5.47;3.42;;;5.80;99.90;;;;;;5082832;28;20405;-44
2021/04/16 05:49:03;;;;;;;5.55;3.42;;;5.80;99.90;;;;;;5087214;28;20067;-44
2021/04/16 05:51:29;;;;;;;11.40;3.35;;;5.80;99.90;;;;;;5085379;28;20032;-44
2021/04/16 05:53:54;;;;;;;10.05;3.50;;;5.90;99.90;;;;;;5083069;28;20036;-43
2021/04/16 05:56:20;;;;;;;4.60;3.35;;;5.90;99.90;;;;;;5086491;28;20230;-44
2021/04/16 05:58:47;;;;;;;9.10;3.22;;;5.90;99.90;;;;;;5089132;28;20107;-45
2021/04/16 06:01:12;;;;;;;8.77;3.65;;;6.00;99.90;;;;;;5105570;28;20073;-44
2021/04/16 06:03:41;;;;;;;7.63;3.53;;;6.00;99.90;;;;;;5080519;28;20497;-45
2021/04/16 06:06:06;;;;;;;6.10;3.38;;;6.00;99.90;;;;;;5089581;28;20542;-45
2021/04/16 06:08:32;;;;;;;7.70;3.33;;;6.00;99.90;;;;;;5088706;28;20162;-44
2021/04/16 06:10:59;;;;;;;4.50;2.90;;;6.00;99.90;;;;;;5089142;28;20020;-46
2021/04/16 06:13:26;;;;;;;6.22;3.25;;;6.10;99.90;;;;;;5091343;28;20110;-44
2021/04/16 06:15:52;;;;;;;5.72;3.70;;;6.10;99.90;;;;;;5100682;28;20045;-47
2021/04/16 06:18:19;;;;;;;6.88;3.17;;;6.20;99.90;;;;;;5099814;28;20011;-43
2021/04/16 06:20:46;;;;;;;5.05;3.50;;;6.20;99.90;;;;;;5097885;28;20015;-44
2021/04/16 06:23:11;;;;;;;5.53;3.03;;;6.40;99.90;;;;;;5089137;28;20031;-43
2021/04/16 06:25:37;;;;;;;10.15;3.45;;;6.50;99.90;;;;;;5087719;28;20381;-44
2021/04/16 06:28:04;;;;;;;12.18;4.00;;;6.60;99.90;;;;;;5086958;28;20474;-43
2021/04/16 06:30:30;;;;;;;4.55;3.00;;;6.70;99.90;;;;;;5087160;28;20023;-43
2021/04/16 06:33:13;;;;;;;7.40;3.20;;;6.80;99.90;;;;;;5086965;28;20089;-44
2021/04/16 06:35:41;;;;;;;5.05;3.13;;;6.90;99.90;;;;;;5087113;28;20441;-45
2021/04/16 06:38:08;;;;;;;5.82;3.17;;;6.80;99.90;;;;;;5086581;28;20362;-44
2021/04/16 06:40:34;;;;;;;4.20;2.70;;;6.90;99.90;;;;;;5086748;28;20030;-43
2021/04/16 06:42:59;;;;;;;4.97;3.08;;;7.00;99.90;;;;;;5087162;28;20023;-44
2021/04/16 06:45:28;;;;;;;6.93;3.05;;;7.10;99.90;;;;;;5086989;28;20505;-43
2021/04/16 06:47:58;;;;;;;6.05;2.88;;;7.00;99.90;;;;;;5085863;28;20111;-44
2021/04/16 06:50:30;;;;;;;5.07;2.70;;;7.10;99.90;;;;;;5069450;28;20023;-44
2021/04/16 06:53:06;;;;;;;6.28;3.35;;;7.10;99.90;;;;;;5086471;28;20277;-44
2021/04/16 06:55:36;;;;;;;5.75;2.70;;;7.20;99.90;;;;;;5087059;28;20020;-45
2021/04/16 06:58:10;;;;;;;7.15;2.88;;;7.20;99.60;;;;;;5086299;28;20516;-44
2021/04/16 07:00:47;;;;;;;4.15;2.60;;;7.30;97.50;;;;;;5087131;28;20085;-44
2021/04/16 07:03:21;;;;;;;6.38;2.65;;;7.30;97.80;;;;;;5086648;28;20081;-45
2021/04/16 07:06:05;;;;;;;6.68;3.10;;;7.40;97.10;;;;;;5086822;28;20396;-47
2021/04/16 07:08:37;;;;;;;5.28;2.58;;;7.40;96.70;;;;;;5084697;28;20066;-44
2021/04/16 07:11:19;;;;;;;4.78;2.70;;;7.40;95.80;;;;;;5082166;28;20492;-43
2021/04/16 07:13:45;;;;;;;5.82;2.63;;;7.60;95.40;;;;;;5086639;28;20036;-44
2021/04/16 07:16:10;;;;;;;4.60;3.03;;;7.60;94.80;;;;;;5064423;28;20047;-45
2021/04/16 07:18:42;;;;;;;8.25;3.35;;;7.70;93.80;;;;;;5085834;28;20036;-44
2021/04/16 07:21:09;;;;;;;6.38;3.47;;;7.60;93.10;;;;;;5086528;28;20081;-46
2021/04/16 07:23:54;;;;;;;7.00;3.38;;;7.80;91.70;;;;;;5087179;28;20025;-45
2021/04/16 07:26:36;;;;;;;6.72;3.38;;;7.70;91.70;;;;;;5086563;28;20039;-43
2021/04/16 07:29:03;;;;;;;6.30;3.45;;;7.90;90.30;;;;;;5092408;28;20020;-43
2021/04/16 07:34:31;;;;;;;4.50;2.40;;;7.90;90.30;;;;;;5095821;28;20081;-44
2021/04/16 07:37:09;;;;;;;4.85;2.90;;;8.10;88.80;;;;;;5068570;28;20021;-45
2021/04/16 07:39:43;;;;;;;4.22;2.15;;;8.10;90.20;;;;;;5099705;28;20370;-47
2021/04/16 07:42:08;;;;;;;3.70;2.38;;;8.30;87.00;;;;;;5110936;28;20024;-44
2021/04/16 07:44:36;;;;;;;5.80;2.10;;;8.60;79.80;;;;;;5110717;28;20476;-43
2021/04/16 07:47:20;;;;;;;5.55;1.67;;;8.60;78.50;;;;;;5110655;28;20622;-45
2021/04/16 07:50:06;;;;;;;2.75;1.58;;;8.70;81.70;;;;;;5100179;28;20039;-45
2021/04/16 07:52:38;;;;;;;3.58;1.48;;;9.10;77.20;;;;;;5090141;28;20032;-44
2021/04/16 07:55:21;;;;;;;3.00;2.38;;;9.70;74.60;;;;;;5090419;28;20051;-44
2021/04/16 07:57:52;;;;;;;2.95;1.88;;;10.00;72.30;;;;;;5089302;28;20093;-46
2021/04/16 08:00:29;;;;;;;6.13;1.92;;;10.40;68.30;;;;;;5089759;28;20481;-45
2021/04/16 08:03:22;;;;;;;1.88;1.20;;;11.20;65.10;;;;;;5089610;28;20438;-43
2021/04/16 08:05:53;;;;;;;2.38;1.55;;;11.50;60.70;;;;;;5090112;28;20031;-43
2021/04/16 08:08:22;;;;;;;5.68;1.80;;;12.10;57.20;;;;;;5088861;28;20020;-46
2021/04/16 08:10:52;;;;;;;2.58;1.50;;;12.30;57.50;;;;;;5089375;28;20020;-44
2021/04/16 08:13:46;;;;;;;1.43;1.33;;;12.90;56.80;;;;;;5071020;28;20115;-44
2021/04/16 08:16:18;;;;;;;2.00;1.60;;;14.00;54.70;;;;;;5067844;28;20274;-44
2021/04/16 08:19:00;;;;;;;3.58;1.60;;;14.30;48.30;;;;;;5089440;28;20020;-44
2021/04/16 08:21:27;;;;;;;2.80;1.85;;;14.20;50.20;;;;;;5089493;28;20024;-45
2021/04/16 08:23:59;;;;;;;3.78;1.63;;;15.30;48.60;;;;;;5089595;28;20526;-46
2021/04/16 08:26:31;;;;;;;3.58;2.40;;;15.80;47.30;;;;;;5089814;28;20054;-45
2021/04/16 08:29:04;;;;;;;2.25;1.58;;;15.90;44.90;;;;;;5088775;28;20121;-45
2021/04/16 08:31:42;;;;;;;1.90;1.35;;;16.30;45.30;;;;;;5089572;28;20038;-45
2021/04/16 08:34:15;;;;;;;1.48;1.25;;;16.00;42.80;;;;;;5089193;28;20032;-45
2021/04/16 08:36:42;;;;;;;1.95;1.60;;;15.80;43.20;;;;;;5071480;28;20021;-45
2021/04/16 08:39:26;;;;;;;3.38;1.60;;;15.90;44.90;;;;;;5088782;28;20106;-45
2021/04/16 08:42:28;;;;;;;3.25;1.80;;;15.60;43.80;;;;;;5089340;28;20028;-45
2021/04/16 08:45:00;;;;;;;4.25;1.60;;;16.10;43.90;;;;;;5088983;28;20085;-45
2021/04/16 08:47:43;;;;;;;4.82;1.50;;;17.20;43.00;;;;;;5088506;28;20028;-45
2021/04/16 08:50:10;;;;;;;3.25;2.08;;;17.20;43.20;;;;;;5084222;28;20085;-47
2021/04/16 08:52:49;;;;;;;4.30;1.75;;;17.70;42.20;;;;;;5088813;28;20032;-45
2021/04/16 08:55:31;;;;;;;2.35;1.70;;;18.00;39.60;;;;;;5089189;28;20016;-45
2021/04/16 08:57:59;;;;;;;3.05;1.48;;;18.50;39.40;;;;;;5088615;28;20191;-47
2021/04/16 09:00:35;;;;;;;2.33;1.58;;;18.60;39.30;;;;;;5089516;28;20194;-46
2021/04/16 09:03:04;;;;;;;3.22;1.42;;;18.30;39.60;;;;;;5088937;28;20175;-45
2021/04/16 09:05:49;;;;;;;3.92;1.52;;;18.00;39.10;;;;;;5086689;28;20208;-45
2021/04/16 09:08:17;;;;;;;2.05;1.80;;;18.00;40.30;;;;;;5081168;28;20134;-45
2021/04/16 09:10:57;;;;;;;3.40;1.58;;;18.10;40.30;;;;;;5083856;28;20016;-46
2021/04/16 09:13:40;;;;;;;2.65;1.75;;;18.10;40.80;;;;;;5084846;28;20035;-45
2021/04/16 09:16:14;;;;;;;1.95;1.70;;;18.70;39.20;;;;;;5079376;28;20051;-45
2021/04/16 09:18:45;;;;;;;2.53;1.88;;;18.90;38.40;;;;;;5083936;28;20514;-45
2021/04/16 09:21:22;;;;;;;2.85;1.77;;;18.30;38.50;;;;;;5084610;28;20177;-45
2021/04/16 09:23:47;;;;;;;2.70;1.63;;;18.20;38.50;;;;;;5088720;28;20024;-46
2021/04/16 09:26:48;;;;;;;3.03;1.90;;;17.80;40.00;;;;;;5088697;28;20039;-46
2021/04/16 09:29:33;;;;;;;;;;;18.00;38.50;;;;;;5087894;28;20032;-47
2021/04/16 09:32:04;;;;;;;3.42;1.63;;;17.90;41.20;;;;;;5081597;28;19908;-45
2021/04/16 09:34:50;;;;;;;4.18;1.60;;;19.00;40.60;;;;;;5069516;28;20118;-44
2021/04/16 09:37:25;;;;;;;2.85;1.65;;;19.40;37.80;;;;;;5085916;28;20385;-44
2021/04/16 09:39:58;;;;;;;3.38;2.20;;;19.40;39.70;;;;;;5088074;28;20115;-46
2021/04/16 09:42:34;;;;;;;4.03;1.75;;;19.30;39.20;;;;;;5088187;28;20024;-46
2021/04/16 09:45:01;;;;;;;3.75;1.70;;;19.30;39.60;;;;;;5088140;28;20116;-47
2021/04/16 09:47:48;;;;;;;2.95;1.60;;;20.60;39.10;;;;;;5087459;28;20028;-46
2021/04/16 09:50:28;;;;;;;5.80;1.92;;;20.50;35.70;;;;;;5087868;28;20028;-45
2021/04/16 09:53:23;;;;;;;5.13;1.60;;;21.10;35.50;;;;;;5087872;28;20024;-46
2021/04/16 09:56:09;;;;;;;3.97;1.95;;;21.70;34.60;;;;;;5069607;28;20061;-45
2021/04/16 09:58:39;;;;;;;2.75;1.85;;;22.10;32.30;;;;;;5086938;28;20059;-46
2021/04/16 10:01:10;;;;;;;2.88;2.03;;;21.90;33.30;;;;;;5086884;28;20020;-45
2021/04/16 10:03:40;;;;;;;3.40;2.08;;;22.60;34.10;;;;;;5077711;28;20086;-44
2021/04/16 10:06:21;;;;;;;2.33;1.52;;;23.20;33.20;;;;;;5080728;28;20031;-48
2021/04/16 10:09:03;;;;;;;3.15;2.05;;;23.50;31.50;;;;;;5081198;28;20055;-46
2021/04/16 10:11:29;;;;;;;1.95;1.58;;;22.90;33.60;;;;;;5084806;28;20032;-47
2021/04/16 10:14:31;;;;;;;4.97;1.70;;;23.10;33.50;;;;;;5085772;28;20032;-47
2021/04/16 10:17:06;;;;;;;2.83;1.80;;;22.90;32.40;;;;;;5078272;28;20055;-45
2021/04/16 10:19:41;;;;;;;3.55;2.38;;;23.40;32.50;;;;;;5086637;28;20032;-46
2021/04/16 10:22:13;;;;;;;2.67;1.75;;;23.20;32.60;;;;;;5077302;28;20324;-46
2021/04/16 10:31:13;;;;;;;2.13;1.55;;;21.90;33.70;;;;;;5061577;28;20035;-47
2021/04/16 10:43:06;;;;;;;3.45;1.50;;;24.80;30.30;;;;;;5085787;28;20071;-46
2021/04/16 10:49:22;;;;;;;3.33;1.80;;;22.80;33.80;;;;;;5082651;28;20039;-45
2021/04/16 11:11:56;;;;;;;1.50;1.40;;;24.20;30.70;;;;;;5081547;28;20529;-49
2021/04/16 12:38:25;;;;;;;3.22;1.98;;;19.30;37.00;;;;;;5089336;28;20070;-44
2021/04/16 12:40:52;;;;;;;4.72;2.33;;;19.00;36.10;;;;;;5089519;28;20103;-46
2021/04/16 12:43:18;;;;;;;4.18;1.88;;;19.00;37.70;;;;;;5089305;28;20024;-48
2021/04/16 12:45:43;;;;;;;2.58;1.60;;;19.00;37.40;;;;;;5071444;28;20195;-46
2021/04/16 12:48:09;;;;;;;1.40;1.30;;;19.20;37.00;;;;;;5087819;28;20024;-46
2021/04/16 12:50:34;;;;;;;2.90;2.22;;;19.30;35.50;;;;;;5089482;28;20047;-45
2021/04/16 12:53:00;;;;;;;1.77;1.67;;;18.80;36.30;;;;;;5088776;28;20032;-45
2021/04/16 12:55:26;;;;;;;3.75;1.70;;;18.80;39.10;;;;;;5089446;28;20038;-45
2021/04/16 12:57:59;;;;;;;2.92;1.95;;;19.20;37.60;;;;;;5069944;28;20027;-45
2021/04/16 13:00:27;;;;;;;2.90;1.80;;;19.10;37.10;;;;;;5089237;28;20551;-46
2021/04/16 13:03:03;;;;;;;4.85;1.83;;;19.10;37.00;;;;;;5088576;28;20205;-45
2021/04/16 13:05:31;;;;;;;3.00;1.90;;;18.60;38.20;;;;;;5089471;28;20032;-46
2021/04/16 13:07:57;;;;;;;3.80;1.92;;;18.30;37.40;;;;;;5088782;28;20028;-45
2021/04/16 13:10:24;;;;;;;3.05;1.40;;;18.00;37.10;;;;;;5089498;28;20225;-45
2021/04/16 13:12:49;;;;;;;2.47;1.42;;;17.70;37.30;;;;;;5070905;28;20040;-46
2021/04/16 13:15:16;;;;;;;1.42;1.33;;;17.40;41.30;;;;;;5088666;28;20024;-45
2021/04/16 13:17:47;;;;;;;3.25;1.50;;;17.50;41.00;;;;;;5069869;28;20020;-44
2021/04/16 13:20:14;;;;;;;;;;;17.60;39.10;;;;;;5088820;28;20055;-45
2021/04/16 13:22:40;;;;;;;2.95;1.70;;;17.10;39.10;;;;;;5088708;28;20266;-44
2021/04/16 13:25:06;;;;;;;4.57;2.00;;;16.80;39.60;;;;;;5088577;28;20504;-46
2021/04/16 13:27:31;;;;;;;4.55;2.10;;;16.60;41.80;;;;;;5088091;28;20273;-44
2021/04/16 13:29:57;;;;;;;6.07;2.00;;;16.50;41.70;;;;;;5088869;28;20108;-48
2021/04/16 13:32:26;;;;;;;5.93;2.08;;;16.40;42.30;;;;;;5087652;28;20028;-45
2021/04/16 13:34:54;;;;;;;7.57;1.85;;;16.30;43.40;;;;;;5088353;28;20035;-46
2021/04/16 13:37:31;;;;;;;7.07;1.80;;;15.80;43.40;;;;;;5087088;28;20090;-44
2021/04/16 13:39:57;;;;;;;8.52;1.85;;;15.80;44.50;;;;;;5070468;28;20342;-44
2021/04/16 13:42:23;;;;;;;5.32;2.10;;;15.90;42.40;;;;;;5070170;28;20107;-45
2021/04/16 13:44:49;;;;;;;4.68;2.05;;;15.70;42.90;;;;;;5088095;28;20032;-44
2021/04/16 13:47:24;;;;;;;4.15;1.95;;;15.40;43.00;;;;;;5087943;28;20035;-45
2021/04/16 13:49:51;;;;;;;3.55;1.85;;;15.40;44.00;;;;;;5088211;28;20397;-45
2021/04/16 13:52:17;;;;;;;5.80;1.80;;;15.30;43.90;;;;;;5088007;28;20039;-44
2021/04/16 13:54:44;;;;;;;4.72;2.28;;;15.30;43.10;;;;;;5087934;28;20040;-45
2021/04/16 13:57:10;;;;;;;3.30;1.83;;;15.10;43.70;;;;;;5088091;28;20426;-44
2021/04/16 13:59:36;;;;;;;3.83;2.20;;;14.60;44.60;;;;;;5086898;28;20078;-44
2021/04/16 14:02:02;;;;;;;3.47;1.90;;;14.70;45.20;;;;;;5083747;28;20016;-45
2021/04/16 14:04:36;;;;;;;4.90;2.22;;;14.70;45.10;;;;;;5078702;28;20082;-44
2021/04/16 14:07:06;;;;;;;4.07;2.00;;;14.40;45.70;;;;;;5086013;28;20380;-45
2021/04/16 14:09:32;;;;;;;2.97;1.50;;;14.30;45.50;;;;;;5085995;28;20035;-44
2021/04/16 14:11:58;;;;;;;2.50;1.80;;;14.50;45.90;;;;;;5087455;28;20032;-44
2021/04/16 14:14:27;;;;;;;7.53;2.00;;;14.30;45.80;;;;;;5087072;28;20039;-45
2021/04/16 14:17:01;;;;;;;4.57;2.20;;;14.20;46.10;;;;;;5086514;28;20545;-45
2021/04/16 14:19:52;;;;;;;4.88;1.77;;;14.10;45.40;;;;;;5085666;28;20055;-43
2021/04/16 14:22:34;;;;;;;6.82;2.00;;;14.00;46.40;;;;;;5077339;28;20115;-44
2021/04/16 14:25:00;;;;;;;3.28;1.92;;;14.00;46.70;;;;;;5086219;28;20528;-46
2021/04/16 14:27:26;;;;;;;2.75;1.85;;;13.90;48.10;;;;;;5085865;28;20036;-45
2021/04/16 14:29:52;;;;;;;4.07;1.73;;;13.80;47.20;;;;;;5086620;28;20131;-45
2021/04/16 14:32:24;;;;;;;4.82;1.60;;;13.90;48.00;;;;;;5066591;28;20031;-44
2021/04/16 14:34:51;;;;;;;5.63;1.90;;;14.00;47.70;;;;;;5087132;28;20146;-45
2021/04/16 14:37:18;;;;;;;4.90;1.85;;;13.90;48.60;;;;;;5083332;28;20248;-45
2021/04/16 14:39:45;;;;;;;5.35;2.35;;;13.90;47.40;;;;;;5088167;28;20049;-45
2021/04/16 14:42:14;;;;;;;5.20;2.25;;;13.80;47.40;;;;;;5086197;28;20023;-45
2021/04/16 14:44:40;;;;;;;4.57;2.28;;;13.80;47.00;;;;;;5086995;28;20077;-45
2021/04/16 14:47:07;;;;;;;3.78;1.95;;;13.60;46.40;;;;;;5089075;28;20031;-45
2021/04/16 14:49:32;;;;;;;4.82;2.22;;;13.50;47.90;;;;;;5085533;28;20346;-44
2021/04/16 14:52:02;;;;;;;6.43;1.90;;;13.30;47.50;;;;;;5088376;28;20016;-44
2021/04/16 14:54:32;;;;;;;5.53;1.90;;;13.20;48.20;;;;;;5076347;28;20221;-45
2021/04/16 14:56:59;;;;;;;3.97;2.10;;;13.10;48.60;;;;;;5097837;28;20054;-45
2021/04/16 14:59:41;;;;;;;3.17;2.00;;;13.10;48.50;;;;;;5088370;28;20441;-45
2021/04/16 15:02:06;;;;;;;4.00;2.08;;;13.20;48.60;;;;;;5087647;28;20024;-48
2021/04/16 15:04:32;;;;;;;3.75;2.28;;;13.30;49.90;;;;;;5087338;28;20509;-47
2021/04/16 15:07:03;;;;;;;3.33;1.90;;;13.20;49.10;;;;;;5088501;28;20028;-46
2021/04/16 15:09:42;;;;;;;3.95;2.05;;;13.30;49.20;;;;;;5084594;28;20036;-46
2021/04/16 15:12:11;;;;;;;2.88;1.92;;;13.40;49.10;;;;;;5084376;28;20028;-46